Time;durP1;ratioP1;P1;durP2;ratioP2;P2;SDS_P1;SDS_P2;PMS_P1;PMS_P2;Temp;Humidity;BMP_temperature;BMP_pressure;BME280_temperature;BME280_humidity;BME280_pressure;Samples;Min_cycle;Max_cycle;Signal;HPM_P1;HPM_P2
2023/06/19 00:05:24;;;;;;;1.88;1.60;;;;;;;20.04;93.30;98018.78;15267240;19;20035;-44
2023/06/19 00:10:49;;;;;;;2.45;1.75;;;;;;;20.02;91.49;98019.84;15273492;19;20018;-43
2023/06/19 00:16:13;;;;;;;2.00;1.73;;;;;;;19.99;96.66;98020.28;15269948;19;20041;-49
2023/06/19 00:21:42;;;;;;;2.75;1.90;;;;;;;19.99;94.80;98028.50;15271131;19;20028;-47
2023/06/19 00:27:09;;;;;;;2.53;1.70;;;;;;;19.96;97.89;98009.81;15267693;19;20568;-45
2023/06/19 00:32:40;;;;;;;1.63;1.52;;;;;;;19.96;97.03;98017.19;15273018;19;20074;-49
2023/06/19 00:38:11;;;;;;;3.47;1.80;;;;;;;19.94;98.39;98016.59;15261265;19;20039;-45
2023/06/19 00:43:37;;;;;;;1.98;1.70;;;;;;;19.92;97.35;98018.72;15263977;19;20021;-47
2023/06/19 00:49:02;;;;;;;1.63;1.52;;;;;;;19.90;99.66;98016.22;15267711;19;20022;-43
2023/06/19 00:54:30;;;;;;;2.80;1.98;;;;;;;19.86;100.00;98007.66;15270736;19;20018;-43
2023/06/19 00:59:55;;;;;;;3.13;1.70;;;;;;;19.86;100.00;97995.88;15269182;19;20010;-45
2023/06/19 01:05:20;;;;;;;3.17;1.80;;;;;;;19.82;100.00;97995.47;15274214;19;20462;-50
2023/06/19 01:10:56;;;;;;;1.88;1.77;;;;;;;19.82;100.00;97995.47;15263002;19;20438;-43
2023/06/19 01:16:39;;;;;;;2.13;1.65;;;;;;;19.83;100.00;97982.63;15268473;19;20404;-42
2023/06/19 01:22:08;;;;;;;2.50;1.80;;;;;;;19.86;100.00;97979.47;15270511;19;20011;-43
2023/06/19 01:27:35;;;;;;;1.70;1.60;;;;;;;19.85;100.00;97975.88;15263206;19;20038;-48
2023/06/19 01:33:06;;;;;;;3.08;1.70;;;;;;;19.86;100.00;97977.59;15271920;19;20033;-44
2023/06/19 01:38:37;;;;;;;1.80;1.70;;;;;;;19.86;100.00;97982.22;15272905;19;20845;-44
2023/06/19 01:44:02;;;;;;;2.10;1.90;;;;;;;19.85;100.00;97975.03;15264925;19;20018;-43
2023/06/19 01:49:30;;;;;;;1.70;1.60;;;;;;;19.84;100.00;97967.91;15268311;19;20701;-47
2023/06/19 01:54:57;;;;;;;1.88;1.75;;;;;;;19.83;100.00;97958.03;15270055;19;20022;-45
2023/06/19 02:00:23;;;;;;;2.75;1.90;;;;;;;19.81;100.00;97955.53;15271147;19;20086;-45
2023/06/19 02:05:50;;;;;;;2.58;2.03;;;;;;;19.79;100.00;97954.94;15268372;19;20107;-49
2023/06/19 02:11:17;;;;;;;2.33;1.90;;;;;;;19.75;100.00;97947.44;15275421;19;20471;-42
2023/06/19 02:16:43;;;;;;;2.00;1.80;;;;;;;19.73;100.00;97944.09;15281738;19;20033;-43
2023/06/19 02:22:07;;;;;;;3.58;1.90;;;;;;;19.74;100.00;97938.41;15278771;19;20029;-43
2023/06/19 02:27:41;;;;;;;2.35;1.70;;;;;;;19.77;100.00;97942.56;15280963;19;20074;-43
2023/06/19 02:33:06;;;;;;;2.10;1.90;;;;;;;19.78;100.00;97942.34;15286241;19;20245;-46
2023/06/19 02:38:30;;;;;;;2.15;1.95;;;;;;;19.79;100.00;97941.28;15283953;19;20011;-45
2023/06/19 02:43:59;;;;;;;1.85;1.67;;;;;;;19.80;100.00;97929.28;15273712;19;20740;-45
2023/06/19 02:49:23;;;;;;;1.98;1.80;;;;;;;19.80;100.00;97939.38;15283355;19;20010;-50
2023/06/19 02:54:48;;;;;;;2.03;1.83;;;;;;;19.81;100.00;97938.31;15273370;19;20025;-50
2023/06/19 03:00:17;;;;;;;1.80;1.70;;;;;;;19.82;100.00;97948.16;15277942;19;20025;-48
2023/06/19 03:05:42;;;;;;;3.97;2.50;;;;;;;19.85;100.00;97953.16;15275992;19;20405;-45
2023/06/19 03:11:06;;;;;;;3.85;1.80;;;;;;;19.85;100.00;97944.97;15274742;19;20353;-50
2023/06/19 03:16:34;;;;;;;1.95;1.85;;;;;;;19.86;100.00;97943.94;15265742;19;20014;-45
2023/06/19 03:22:00;;;;;;;2.47;1.80;;;;;;;19.87;100.00;97945.59;15273199;19;20021;-46
2023/06/19 03:27:26;;;;;;;2.50;1.80;;;;;;;19.87;100.00;97956.53;15268122;19;20427;-48
2023/06/19 03:32:53;;;;;;;1.92;1.73;;;;;;;19.89;100.00;97948.09;15281457;19;20010;-52
2023/06/19 03:38:25;;;;;;;1.80;1.70;;;;;;;19.89;100.00;97948.94;15269018;19;20038;-46
2023/06/19 03:43:50;;;;;;;1.95;1.80;;;;;;;19.93;100.00;97952.03;15272829;19;20029;-46
2023/06/19 03:49:17;;;;;;;2.20;1.83;;;;;;;19.96;100.00;97946.94;15268544;19;20049;-49
2023/06/19 03:54:42;;;;;;;1.85;1.63;;;;;;;19.98;100.00;97947.53;15276049;19;20053;-45
2023/06/19 04:00:12;;;;;;;2.15;1.80;;;;;;;19.99;100.00;97957.41;15269748;19;20402;-47
2023/06/19 04:05:42;;;;;;;2.03;1.85;;;;;;;19.97;100.00;97951.34;15271378;19;20045;-54
2023/06/19 04:11:07;;;;;;;3.25;1.90;;;;;;;19.97;100.00;97956.81;15275357;19;20018;-49
2023/06/19 04:16:31;;;;;;;3.33;1.75;;;;;;;19.96;100.00;97955.13;15269116;19;20325;-48
2023/06/19 04:21:58;;;;;;;2.10;1.90;;;;;;;19.99;100.00;97965.59;15267724;19;20840;-46
2023/06/19 04:27:24;;;;;;;1.92;1.80;;;;;;;19.97;100.00;97965.00;15269746;19;20022;-53
2023/06/19 04:32:49;;;;;;;2.30;1.77;;;;;;;19.99;100.00;97964.78;15270421;19;20014;-47
2023/06/19 04:38:16;;;;;;;2.33;2.10;;;;;;;20.01;100.00;97982.63;15269793;19;20086;-48
2023/06/19 04:43:41;;;;;;;1.90;1.80;;;;;;;20.02;100.00;97975.25;15270233;19;20018;-52
2023/06/19 04:49:05;;;;;;;2.00;1.80;;;;;;;20.05;100.00;97969.31;15272081;19;20025;-50
2023/06/19 04:54:33;;;;;;;3.33;1.90;;;;;;;20.08;100.00;97979.78;15264597;19;20018;-47
2023/06/19 04:59:57;;;;;;;2.33;2.10;;;;;;;20.12;100.00;97994.63;15271651;19;20018;-50
2023/06/19 05:05:23;;;;;;;2.40;2.00;;;;;;;20.14;100.00;97999.91;15263197;19;20006;-46
2023/06/19 05:10:50;;;;;;;3.53;2.00;;;;;;;20.15;100.00;98001.56;15271906;19;20006;-46
2023/06/19 05:16:16;;;;;;;2.28;1.90;;;;;;;20.18;100.00;97998.34;15262588;19;20014;-47
2023/06/19 05:21:40;;;;;;;2.60;1.90;;;;;;;20.22;100.00;97985.06;15264265;19;20006;-51
2023/06/19 05:27:15;;;;;;;1.88;1.67;;;;;;;20.13;100.00;98014.63;15256381;19;20019;-47
2023/06/19 05:32:40;;;;;;;2.50;1.77;;;;;;;20.07;100.00;98010.09;15263342;19;20014;-51
2023/06/19 05:38:05;;;;;;;2.47;1.98;;;;;;;20.06;100.00;97986.53;15260861;19;20029;-48
2023/06/19 05:43:32;;;;;;;2.13;1.90;;;;;;;20.04;100.00;97997.72;15269304;19;20015;-50
2023/06/19 05:48:57;;;;;;;2.38;2.00;;;;;;;19.96;100.00;98012.56;15293417;19;20502;-47
2023/06/19 05:54:23;;;;;;;2.20;2.00;;;;;;;19.94;100.00;98000.19;15299702;19;20010;-45
2023/06/19 05:59:50;;;;;;;3.80;2.03;;;;;;;19.91;100.00;97985.09;15291565;19;20006;-45
2023/06/19 06:05:24;;;;;;;2.22;2.03;;;;;;;19.96;100.00;98006.25;15299663;19;20406;-46
2023/06/19 06:10:48;;;;;;;2.35;2.00;;;;;;;19.98;100.00;98002.22;15292431;19;20673;-51
2023/06/19 06:16:15;;;;;;;2.08;1.90;;;;;;;20.02;100.00;98002.59;15294043;19;20078;-45
2023/06/19 06:21:40;;;;;;;2.00;1.90;;;;;;;20.08;100.00;98012.59;15297232;19;20451;-47
2023/06/19 06:27:07;;;;;;;3.00;1.65;;;;;;;20.19;100.00;98013.69;15291350;19;20014;-44
2023/06/19 06:32:34;;;;;;;2.88;2.00;;;;;;;20.28;100.00;98020.50;15290442;19;20337;-47
2023/06/19 06:37:59;;;;;;;2.28;2.08;;;;;;;20.38;100.00;98021.84;15291943;19;20393;-46
2023/06/19 06:43:23;;;;;;;2.63;2.00;;;;;;;20.50;100.00;98014.47;15293857;19;20750;-47
2023/06/19 06:48:51;;;;;;;1.83;1.73;;;;;;;20.71;100.00;98020.44;15292375;19;20011;-46
2023/06/19 06:54:15;;;;;;;1.80;1.70;;;;;;;20.90;100.00;98030.22;15295069;19;20018;-48
2023/06/19 06:59:39;;;;;;;3.97;1.98;;;;;;;;;;15280854;19;20384;-49
2023/06/19 07:05:07;;;;;;;2.13;1.90;;;;;;;21.24;100.00;98038.66;15270460;19;20362;-47
2023/06/19 07:10:32;;;;;;;2.10;1.90;;;;;;;21.44;100.00;98040.19;15280205;19;20020;-48
2023/06/19 07:15:58;;;;;;;1.92;1.73;;;;;;;21.66;100.00;98047.78;15279589;19;20482;-44
2023/06/19 07:21:26;;;;;;;2.42;1.88;;;;;;;21.94;100.00;98051.63;15283700;19;20365;-50
2023/06/19 07:26:50;;;;;;;1.88;1.70;;;;;;;22.19;100.00;98065.00;15275082;19;20467;-48
2023/06/19 07:32:15;;;;;;;3.97;1.80;;;;;;;22.45;100.00;98058.09;15281034;19;20074;-50
2023/06/19 07:37:42;;;;;;;1.70;1.60;;;;;;;22.75;99.64;98054.22;15267796;19;20078;-52
2023/06/19 07:43:07;;;;;;;3.97;1.95;;;;;;;23.01;100.00;98062.00;15273630;19;20019;-48
2023/06/19 07:48:31;;;;;;;3.97;2.00;;;;;;;23.21;100.00;98064.25;15277691;19;20015;-47
2023/06/19 07:53:58;;;;;;;1.70;1.60;;;;;;;23.38;94.31;98055.97;15281296;19;20081;-45
2023/06/19 07:59:24;;;;;;;2.20;2.00;;;;;;;23.47;100.00;98054.44;15274411;19;20370;-47
2023/06/19 08:04:49;;;;;;;2.67;1.77;;;;;;;23.61;96.62;98051.31;15268165;19;20038;-50
2023/06/19 08:10:18;;;;;;;2.20;1.70;;;;;;;23.73;90.23;98041.03;15267228;19;20018;-44
2023/06/19 08:15:49;;;;;;;2.13;1.60;;;;;;;23.84;81.41;98036.47;15268889;19;20021;-45
2023/06/19 08:21:14;;;;;;;3.70;1.90;;;;;;;23.89;78.67;98050.28;15275310;19;20019;-45
2023/06/19 08:26:41;;;;;;;2.40;1.80;;;;;;;23.91;79.88;98056.38;15268642;19;20074;-48
2023/06/19 08:32:09;;;;;;;2.00;1.80;;;;;;;23.96;79.28;98061.94;15276363;19;20042;-45
2023/06/19 08:37:33;;;;;;;2.35;1.85;;;;;;;23.99;87.54;98072.44;15270407;19;20366;-50
2023/06/19 08:43:02;;;;;;;3.15;1.80;;;;;;;24.04;81.97;98062.59;15266684;19;20461;-44
2023/06/19 08:48:26;;;;;;;3.28;1.90;;;;;;;24.04;82.28;98057.09;15263236;19;20049;-50
2023/06/19 08:53:53;;;;;;;4.72;2.00;;;;;;;24.11;82.25;98055.78;15273036;19;20074;-50
2023/06/19 08:59:24;;;;;;;2.47;1.85;;;;;;;24.31;78.57;98046.09;15272114;19;20037;-51
2023/06/19 09:04:49;;;;;;;8.32;2.10;;;;;;;24.64;72.86;98051.63;15269777;19;20474;-49
2023/06/19 09:10:26;;;;;;;3.08;2.05;;;;;;;24.89;71.06;98062.84;15270983;19;20014;-45
2023/06/19 09:16:01;;;;;;;4.60;1.80;;;;;;;25.07;67.18;98056.09;15271064;19;20018;-47
2023/06/19 09:21:28;;;;;;;2.50;1.95;;;;;;;25.22;70.05;98066.41;15264248;19;20084;-45
2023/06/19 09:26:54;;;;;;;2.40;1.85;;;;;;;25.31;65.07;98068.66;15266628;19;20828;-44
2023/06/19 09:32:32;;;;;;;1.80;1.60;;;;;;;25.40;65.19;98056.00;15273334;19;20022;-47
2023/06/19 09:37:58;;;;;;;1.95;1.58;;;;;;;25.51;59.58;98051.41;15267068;19;20029;-47
2023/06/19 09:43:27;;;;;;;1.98;1.75;;;;;;;25.63;58.21;98062.22;15262909;19;20019;-46
2023/06/19 09:48:58;;;;;;;2.22;1.60;;;;;;;25.56;55.95;98048.66;15267702;19;20010;-45
2023/06/19 09:54:24;;;;;;;2.10;1.90;;;;;;;25.76;59.36;98047.09;15264372;19;20020;-52
2023/06/19 09:59:51;;;;;;;3.53;1.80;;;;;;;25.75;60.63;98054.56;15268214;19;20621;-48
2023/06/19 10:05:24;;;;;;;1.75;1.60;;;;;;;25.92;62.92;98061.78;15266833;19;20659;-46
2023/06/19 10:10:50;;;;;;;3.30;1.60;;;;;;;25.84;58.64;98079.69;15268181;19;20030;-50
2023/06/19 10:16:16;;;;;;;2.97;1.60;;;;;;;25.94;58.89;98081.66;15234803;19;20093;-50
2023/06/19 10:21:50;;;;;;;2.50;1.60;;;;;;;26.03;58.42;98068.16;15269204;19;20022;-53
2023/06/19 10:27:30;;;;;;;2.25;1.60;;;;;;;26.09;54.77;98070.66;15256068;19;20014;-50
2023/06/19 10:32:56;;;;;;;1.50;1.40;;;;;;;26.33;56.53;98067.44;15273935;19;20094;-51
2023/06/19 10:38:23;;;;;;;2.30;1.70;;;;;;;26.44;55.51;98057.25;15275305;19;20825;-53
2023/06/19 10:43:56;;;;;;;5.38;1.50;;;;;;;26.45;55.02;98058.91;15277085;19;20017;-49
2023/06/19 10:49:20;;;;;;;2.15;1.40;;;;;;;26.62;55.53;98055.88;15273442;19;20011;-53
2023/06/19 10:54:47;;;;;;;2.55;1.73;;;;;;;26.66;56.99;98059.72;15281307;19;20037;-46
2023/06/19 11:00:14;;;;;;;3.17;1.50;;;;;;;26.63;56.73;98067.75;15273939;19;20721;-47
2023/06/19 11:05:39;;;;;;;2.10;1.60;;;;;;;26.74;59.36;98044.53;15274612;19;20022;-51
2023/06/19 11:11:06;;;;;;;3.03;1.40;;;;;;;26.80;56.11;98059.22;15280933;19;20018;-48
2023/06/19 11:16:31;;;;;;;1.67;1.25;;;;;;;26.80;54.20;98053.69;15274504;19;20485;-47
2023/06/19 11:21:57;;;;;;;2.60;1.33;;;;;;;26.99;56.30;98071.34;15272501;19;20101;-46
2023/06/19 11:27:32;;;;;;;3.30;1.40;;;;;;;27.11;55.82;98064.75;15270013;19;20463;-51
2023/06/19 11:32:57;;;;;;;2.00;1.40;;;;;;;27.33;54.29;98054.19;15269326;19;20760;-50
2023/06/19 11:38:26;;;;;;;3.47;1.30;;;;;;;27.45;53.65;98062.19;15270550;19;20820;-47
2023/06/19 11:44:01;;;;;;;1.27;1.15;;;;;;;27.75;54.13;98057.66;15275976;19;20022;-53
2023/06/19 11:49:28;;;;;;;1.23;1.13;;;;;;;27.90;52.87;98050.38;15274085;19;20073;-44
2023/06/19 11:54:53;;;;;;;2.13;1.30;;;;;;;28.10;51.83;98042.03;15267124;19;20817;-47
2023/06/19 12:00:27;;;;;;;1.27;1.17;;;;;;;28.33;51.55;98033.28;15276218;19;20025;-47
2023/06/19 12:05:52;;;;;;;1.20;1.10;;;;;;;28.51;52.11;98023.44;15267220;19;20007;-49
2023/06/19 12:11:16;;;;;;;1.98;1.20;;;;;;;28.69;51.11;98020.00;15267745;19;20033;-46
2023/06/19 12:16:44;;;;;;;1.55;0.90;;;;;;;29.01;50.29;98009.44;15264124;19;20083;-47
2023/06/19 12:22:08;;;;;;;3.08;1.10;;;;;;;29.10;51.05;98013.25;15273741;19;20030;-47
2023/06/19 12:27:33;;;;;;;1.45;1.10;;;;;;;29.32;48.80;98006.34;15264165;19;20022;-52
2023/06/19 12:33:03;;;;;;;2.08;1.13;;;;;;;29.47;49.75;97995.09;15273979;19;20014;-48
2023/06/19 12:38:28;;;;;;;1.77;1.10;;;;;;;29.85;49.35;98004.59;15267902;19;20471;-48
2023/06/19 12:43:52;;;;;;;2.47;1.10;;;;;;;30.13;48.76;97997.28;15273599;19;20018;-47
2023/06/19 12:49:20;;;;;;;1.25;0.88;;;;;;;30.59;48.21;97995.78;15269404;19;20374;-48
2023/06/19 12:54:51;;;;;;;0.90;0.90;;;;;;;30.95;47.41;97991.53;15269815;19;20082;-49
2023/06/19 13:00:17;;;;;;;3.22;1.00;;;;;;;30.97;47.13;97998.44;15263780;19;20018;-48
2023/06/19 13:05:44;;;;;;;5.22;1.05;;;;;;;31.17;46.55;97993.66;15261629;19;20010;-48
2023/06/19 13:11:09;;;;;;;1.15;1.05;;;;;;;31.30;45.00;97997.56;15265484;19;20013;-45
2023/06/19 13:16:33;;;;;;;0.80;0.80;;;;;;;31.38;46.19;97998.81;15261202;19;20012;-48
2023/06/19 13:22:07;;;;;;;1.25;0.98;;;;;;;31.44;45.68;97987.25;15269377;19;20058;-49
2023/06/19 13:27:31;;;;;;;1.63;0.90;;;;;;;31.47;46.70;97978.28;15264376;19;20014;-53
2023/06/19 13:32:56;;;;;;;1.00;0.90;;;;;;;31.35;45.39;97978.00;15262385;19;20012;-50
2023/06/19 13:38:25;;;;;;;3.22;1.00;;;;;;;31.28;45.06;97983.97;15258341;19;20367;-50
2023/06/19 13:43:50;;;;;;;4.15;1.20;;;;;;;31.13;44.97;97993.44;15268369;19;20023;-48
2023/06/19 13:49:14;;;;;;;1.48;1.20;;;;;;;30.58;47.08;97994.13;15265078;19;20021;-51
2023/06/19 13:54:42;;;;;;;3.13;1.27;;;;;;;30.26;46.56;97979.88;15268102;19;20011;-50
2023/06/19 14:00:07;;;;;;;2.85;1.30;;;;;;;30.20;49.04;97988.56;15264685;19;20090;-50
2023/06/19 14:05:32;;;;;;;9.88;1.48;;;;;;;29.78;54.12;97993.88;15260215;19;20022;-45
2023/06/19 14:10:59;;;;;;;3.47;1.58;;;;;;;29.51;56.72;97984.25;15278438;19;20036;-47
2023/06/19 14:16:24;;;;;;;4.55;1.40;;;;;;;29.47;57.12;97986.75;15275839;19;20017;-47
2023/06/19 14:21:48;;;;;;;5.47;1.50;;;;;;;29.68;57.05;97992.88;15281068;19;20026;-44
2023/06/19 14:27:16;;;;;;;2.60;1.50;;;;;;;29.80;56.13;97994.41;15272987;19;20021;-49
2023/06/19 14:32:47;;;;;;;1.58;1.45;;;;;;;30.04;54.41;97986.06;15278070;19;20050;-54
2023/06/19 14:38:12;;;;;;;1.50;1.30;;;;;;;30.29;54.47;97981.19;15272874;19;20017;-51
2023/06/19 14:43:39;;;;;;;1.13;1.02;;;;;;;30.55;53.36;97981.66;15275183;19;20014;-46
2023/06/19 14:49:04;;;;;;;5.05;1.40;;;;;;;30.77;52.77;97980.16;15276618;19;20007;-49
2023/06/19 14:54:29;;;;;;;4.85;1.30;;;;;;;30.84;52.52;97990.91;15276665;19;20017;-45
2023/06/19 14:59:57;;;;;;;1.35;1.25;;;;;;;30.84;52.66;98002.03;15275818;19;20023;-52
2023/06/19 15:05:21;;;;;;;3.97;1.40;;;;;;;30.81;53.07;97989.53;15267550;19;20359;-49
2023/06/19 15:10:46;;;;;;;1.50;1.30;;;;;;;30.75;53.52;97996.31;15274841;19;20022;-51
2023/06/19 15:16:14;;;;;;;2.22;1.50;;;;;;;30.61;54.19;97996.31;15269384;19;20014;-49
2023/06/19 15:21:39;;;;;;;1.60;1.20;;;;;;;30.44;54.78;97988.50;15273908;19;20025;-50
2023/06/19 15:27:04;;;;;;;1.83;1.20;;;;;;;30.40;54.79;97981.88;15272266;19;20485;-47
2023/06/19 15:32:38;;;;;;;1.70;1.23;;;;;;;30.28;54.71;97968.47;15276931;19;20021;-45
2023/06/19 15:38:03;;;;;;;1.20;1.10;;;;;;;30.26;56.17;97962.38;15264426;19;20754;-44
2023/06/19 15:43:28;;;;;;;4.07;1.00;;;;;;;30.21;56.63;97968.00;15276803;19;20629;-50
2023/06/19 15:48:56;;;;;;;2.38;1.30;;;;;;;30.10;56.32;97970.13;15264243;19;20737;-49
2023/06/19 15:54:20;;;;;;;3.20;1.20;;;;;;;29.96;59.52;97968.09;15274428;19;20021;-48
2023/06/19 15:59:47;;;;;;;1.55;1.20;;;;;;;29.85;62.04;97958.25;15274402;19;20022;-47
2023/06/19 16:05:16;;;;;;;2.78;1.10;;;;;;;29.86;63.55;97959.91;15273084;19;20017;-48
2023/06/19 16:10:41;;;;;;;3.28;1.15;;;;;;;29.82;63.19;97964.38;15267847;19;20049;-48
2023/06/19 16:16:07;;;;;;;1.58;1.30;;;;;;;29.85;65.13;97962.94;15271145;19;20018;-48
2023/06/19 16:21:34;;;;;;;1.90;1.30;;;;;;;29.83;68.87;97952.97;15268403;19;20023;-48
2023/06/19 16:26:58;;;;;;;3.22;1.30;;;;;;;29.79;65.68;97960.28;15269347;19;20012;-47
2023/06/19 16:32:30;;;;;;;3.90;1.60;;;;;;;29.74;69.00;97956.75;15268672;19;20023;-47
2023/06/19 16:37:57;;;;;;;1.80;1.10;;;;;;;29.78;66.36;97961.38;15267197;19;20024;-45
2023/06/19 16:43:22;;;;;;;3.08;1.52;;;;;;;29.74;66.49;97954.78;15267317;19;20624;-44
2023/06/19 16:48:46;;;;;;;2.72;1.35;;;;;;;29.77;68.97;97968.06;15264232;19;20025;-46
2023/06/19 16:54:13;;;;;;;3.58;1.50;;;;;;;29.70;69.47;97964.00;15266520;19;20039;-51
2023/06/19 16:59:38;;;;;;;1.50;1.30;;;;;;;29.57;73.93;97965.56;15269040;19;20018;-49
2023/06/19 17:05:03;;;;;;;2.78;1.30;;;;;;;29.38;79.77;97963.56;15265973;19;20096;-49
2023/06/19 17:10:31;;;;;;;2.28;1.30;;;;;;;29.15;88.43;97959.66;15267701;19;20018;-53
2023/06/19 17:15:56;;;;;;;2.03;1.50;;;;;;;28.95;93.22;97961.53;15259581;19;20016;-50
2023/06/19 17:21:20;;;;;;;3.42;1.60;;;;;;;28.79;98.06;97965.59;15269463;19;20504;-50
2023/06/19 17:26:48;;;;;;;3.60;1.25;;;;;;;28.69;99.35;97969.25;15259335;19;20014;-50
2023/06/19 17:32:20;;;;;;;2.05;1.50;;;;;;;28.68;98.58;97967.59;15259664;19;20034;-52
2023/06/19 17:37:46;;;;;;;4.10;1.50;;;;;;;28.70;95.84;97971.72;15256816;19;20018;-49
2023/06/19 17:43:14;;;;;;;1.98;1.42;;;;;;;28.84;92.80;97976.63;15265864;19;20098;-46
2023/06/19 17:48:40;;;;;;;3.63;1.40;;;;;;;29.10;90.32;97985.53;15257047;19;20021;-49
2023/06/19 17:54:05;;;;;;;1.40;1.30;;;;;;;29.30;89.97;97980.84;15267197;19;20018;-49
2023/06/19 17:59:33;;;;;;;2.30;1.40;;;;;;;29.46;89.95;97982.31;15260678;19;20015;-48
2023/06/19 18:04:58;;;;;;;3.08;1.40;;;;;;;29.52;87.12;97986.72;15265068;19;20361;-49
2023/06/19 18:10:22;;;;;;;1.60;1.50;;;;;;;29.57;87.40;97988.59;15264872;19;20031;-46
2023/06/19 18:15:50;;;;;;;2.92;1.40;;;;;;;29.56;86.05;97991.69;15262030;19;20018;-49
2023/06/19 18:21:29;;;;;;;1.65;1.40;;;;;;;29.50;90.28;97994.50;15257435;19;20471;-51
2023/06/19 18:26:54;;;;;;;2.25;1.40;;;;;;;29.40;91.53;97997.41;15260408;19;20014;-51
2023/06/19 18:32:29;;;;;;;2.63;1.60;;;;;;;29.27;93.03;97990.59;15254301;19;20033;-56
2023/06/19 18:37:54;;;;;;;2.28;1.73;;;;;;;29.18;93.51;98004.28;15259519;19;20089;-50
2023/06/19 18:43:19;;;;;;;2.28;1.33;;;;;;;29.06;96.44;98003.84;15259812;19;20458;-47
2023/06/19 18:48:47;;;;;;;2.47;1.67;;;;;;;28.90;98.80;97997.66;15258096;19;20078;-46
2023/06/19 18:54:11;;;;;;;3.03;1.55;;;;;;;28.77;99.74;98007.44;15265059;19;20028;-47
2023/06/19 18:59:35;;;;;;;1.95;1.67;;;;;;;28.60;100.00;98011.47;15276594;19;20019;-51
2023/06/19 19:05:03;;;;;;;1.50;1.40;;;;;;;28.46;100.00;98010.47;15270608;19;20024;-53
2023/06/19 19:10:27;;;;;;;1.70;1.50;;;;;;;28.29;100.00;98008.91;15275882;19;20017;-48
2023/06/19 19:15:53;;;;;;;4.20;1.50;;;;;;;28.13;100.00;98018.47;15274692;19;20042;-51
2023/06/19 19:21:20;;;;;;;1.63;1.40;;;;;;;27.93;100.00;98017.41;15281167;19;20018;-53
2023/06/19 19:26:45;;;;;;;5.32;1.88;;;;;;;27.75;100.00;98015.31;15268430;19;20010;-49
2023/06/19 19:32:20;;;;;;;2.53;1.70;;;;;;;27.56;100.00;98027.03;15272023;19;20042;-50
2023/06/19 19:37:48;;;;;;;3.25;1.90;;;;;;;27.28;100.00;98032.06;15266386;19;20014;-49
2023/06/19 19:43:13;;;;;;;2.13;1.90;;;;;;;26.97;100.00;98043.19;15276887;19;20002;-51
2023/06/19 19:48:38;;;;;;;3.58;2.30;;;;;;;26.63;100.00;98053.94;15268971;19;20030;-49
2023/06/19 19:54:06;;;;;;;4.05;2.30;;;;;;;26.40;100.00;98051.41;15274080;19;20511;-53
2023/06/19 19:59:30;;;;;;;2.20;2.00;;;;;;;26.25;100.00;98051.41;15268541;19;20078;-49
2023/06/19 20:04:55;;;;;;;2.30;2.10;;;;;;;26.13;100.00;98060.78;15269813;19;20015;-48
2023/06/19 20:10:22;;;;;;;2.45;2.00;;;;;;;26.05;100.00;98060.44;15270995;19;20014;-51
2023/06/19 20:15:47;;;;;;;2.63;2.20;;;;;;;25.93;100.00;98057.94;15245661;19;20010;-47
2023/06/19 20:21:12;;;;;;;2.53;2.20;;;;;;;25.79;100.00;98057.59;15269160;19;20028;-52
2023/06/19 20:26:42;;;;;;;2.67;2.08;;;;;;;25.69;100.00;98064.72;15268799;19;20031;-51
2023/06/19 20:32:14;;;;;;;3.03;2.33;;;;;;;25.60;100.00;98062.75;15266157;19;20541;-55
2023/06/19 20:37:38;;;;;;;4.60;2.40;;;;;;;25.44;100.00;98067.38;15269487;19;20020;-51
2023/06/19 20:43:08;;;;;;;3.33;2.20;;;;;;;25.30;100.00;98078.00;15328636;19;20015;-51
2023/06/19 20:48:39;;;;;;;3.40;2.20;;;;;;;25.20;100.00;98071.34;15318776;19;20006;-50
2023/06/19 21:00:14;;;;;;;2.30;2.10;;;;;;;24.91;100.00;98082.69;15263627;19;20003;-47
2023/06/19 21:05:38;;;;;;;2.40;2.20;;;;;;;24.81;100.00;98079.88;15271069;19;20022;-51
2023/06/19 21:11:03;;;;;;;4.30;2.33;;;;;;;24.71;100.00;98071.53;15264878;19;20035;-50
2023/06/19 21:16:30;;;;;;;4.60;2.40;;;;;;;24.58;100.00;98076.34;15265002;19;20021;-49
2023/06/19 21:21:55;;;;;;;2.60;2.40;;;;;;;24.47;100.00;98071.81;15271512;19;20021;-49
2023/06/19 21:27:19;;;;;;;2.78;2.30;;;;;;;24.39;100.00;98095.16;15266065;19;20011;-52
2023/06/19 21:32:54;;;;;;;3.63;2.00;;;;;;;24.35;100.00;98098.69;15259057;19;20025;-50
2023/06/19 21:38:20;;;;;;;1.90;1.80;;;;;;;24.22;100.00;98110.94;15265565;19;20031;-48
2023/06/19 21:43:44;;;;;;;2.42;2.00;;;;;;;24.07;100.00;98108.84;15269397;19;20033;-47
2023/06/19 21:49:11;;;;;;;2.92;1.85;;;;;;;23.99;100.00;98116.47;15268392;19;20027;-53
2023/06/19 21:54:36;;;;;;;2.10;1.83;;;;;;;23.88;100.00;98120.16;15270643;19;20085;-52
2023/06/19 22:00:00;;;;;;;2.90;1.50;;;;;;;23.69;100.00;98128.72;15270106;19;20021;-55
2023/06/19 22:05:28;;;;;;;1.92;1.70;;;;;;;23.52;100.00;98128.72;15263057;19;20010;-48
2023/06/19 22:10:53;;;;;;;2.47;1.73;;;;;;;23.36;100.00;98129.63;15265290;19;20019;-53
2023/06/19 22:16:17;;;;;;;2.05;1.60;;;;;;;23.24;100.00;98122.31;15263180;19;20021;-51
2023/06/19 22:21:44;;;;;;;3.20;1.70;;;;;;;23.15;100.00;98125.69;15268361;19;20007;-55
2023/06/19 22:27:10;;;;;;;1.70;1.38;;;;;;;23.04;100.00;98120.03;15263210;19;20362;-51
2023/06/19 22:32:36;;;;;;;3.33;1.20;;;;;;;23.00;100.00;98123.53;15277405;19;20037;-49
2023/06/19 22:38:04;;;;;;;1.63;1.30;;;;;;;22.93;100.00;98121.75;15270862;19;20019;-50
2023/06/19 22:43:29;;;;;;;1.25;1.15;;;;;;;22.86;100.00;98123.84;15283237;19;20511;-55
2023/06/19 22:48:55;;;;;;;2.10;1.30;;;;;;;22.83;100.00;98126.25;15272715;19;20019;-49
2023/06/19 22:54:22;;;;;;;1.60;1.40;;;;;;;22.78;100.00;98118.78;15282694;19;20355;-51
2023/06/19 22:59:47;;;;;;;1.63;1.30;;;;;;;22.73;100.00;98114.03;15282497;19;20010;-54
2023/06/19 23:05:13;;;;;;;1.70;1.20;;;;;;;22.72;100.00;98120.59;15282449;19;20070;-54
2023/06/19 23:10:40;;;;;;;1.30;1.20;;;;;;;22.69;100.00;98115.59;15269645;19;20021;-51
2023/06/19 23:16:05;;;;;;;1.88;1.30;;;;;;;22.67;100.00;98112.25;15275737;19;20026;-53
2023/06/19 23:21:30;;;;;;;2.90;1.27;;;;;;;22.65;100.00;98114.41;15274618;19;20081;-55
2023/06/19 23:26:58;;;;;;;1.63;1.48;;;;;;;22.63;100.00;98114.69;15275423;19;20024;-50
2023/06/19 23:32:30;;;;;;;2.83;1.70;;;;;;;22.60;100.00;98111.59;15275494;19;20083;-50
2023/06/19 23:37:56;;;;;;;3.50;1.30;;;;;;;22.54;100.00;98104.34;15275368;19;20085;-48
2023/06/19 23:43:23;;;;;;;1.98;1.30;;;;;;;22.46;100.00;98106.41;15271002;19;20401;-51
2023/06/19 23:48:48;;;;;;;2.22;1.55;;;;;;;22.39;100.00;98105.72;15276009;19;20948;-50
2023/06/19 23:54:13;;;;;;;1.60;1.45;;;;;;;22.33;100.00;98095.72;15272745;19;20015;-51
2023/06/19 23:59:41;;;;;;;1.50;1.30;;;;;;;22.27;100.00;98096.72;15275155;19;20312;-49
